Terminal Aerodrome Forecast
Issued by NWS Burlington, VT

Home | Current Version | Previous Version | Text Only | Print | Product List | Glossary On
Versions: 1 2 3 4 5 6 7 8 9 10 11 12 13
000
FTUS41 KBTV 251134
TAFBTV
TAF
KBTV 251134Z 2512/2612 VRB03KT P6SM SCT150 BKN250
     FM251500 16009KT P6SM BKN150 BKN200
     FM251800 16012G20KT P6SM VCSH OVC080
     FM260000 15009KT 6SM -SHRA OVC040
     FM260600 13004KT 4SM -SHRA BR OVC020=

USA.gov is the U.S. government's official web portal to all federal, state and local government web resources and services.